DTMB/MIR METAR and TAF weather

Enter ICAO airport designator
Station Type Date Time Source
DTMB METAR 2018/01/22 12:00 UTC NOAA

DTMB 221200Z 31015KT 9999 FEW020 19/12 Q1019


Station Type Date Time Source
DTMB Decoded METAR 2018/01/22 12:00 UTC NOAA

Habib Bourguiba , Tunisia (DTMB) 35-46N 010-45E
Jan 22, 2018 - 07:00 AM EST / 2018.01.22 1200 UTC
Wind: from the NW (310 degrees) at 17 MPH (15 KT):0
Visibility: greater than 7 mile(s):0
Sky conditions: mostly clear
Temperature: 66 F (19 C)
Dew Point: 53 F (12 C)
Relative Humidity: 63%
Pressure (altimeter): 30.09 in. Hg (1019 hPa)
ob: DTMB 221200Z 31015KT 9999 FEW020 19/12 Q1019
cycle: 12

Station Type Date Time Source
DTMB TAF 2018/01/22 12:33 UTC NOAA

TAF TAF DTMB 221124Z 2212/2312 32020G35KT 9999 FEW020


Example: see airport list